Jack Guidry — WDF2422 — position and weather

sailwx.info

Track history (hours):
 
Tides and Currents Weather Stations Pressure Air Temp Water Temp Dewpoint Dewpoint Depression Visibility Wind Speed Wind Dir Waves Ship Positions

Jack Guidry

Owner: Enterprise Marine Services, LLC, San Antonio, TX. More information available from US FCC via Universal Licensing System and Coast Guard Vessel Documentation Center.

Last reported at 2016-Sep-26 13:14 UTC. Time now 2016-Sep-26 22:29 UTC.
Position N 30°04' W 093°33'.

Length 22 m; draft 3 m.

Type: Other ship. MMSI: 367003430.

Date/timePositionNaut miles runAvg speedWind from/ knotsBaromVisibWave heightAir tempDewpointWater temp
2016-Sep-26 13:14N 30°04' W 093°33'8 4.6
2016-Sep-26 11:33N 30°04' W 093°24'6 2.0
2016-Sep-26 08:33N 30°08' W 093°19'0 0.0
2016-Sep-26 02:33N 30°08' W 093°19'0 0.0
2016-Sep-26 01:33N 30°08' W 093°19'0 0.0
2016-Sep-26 00:33N 30°08' W 093°19'0 0.0
2016-Sep-25 21:33N 30°08' W 093°19'0 0.0
2016-Sep-25 17:33N 30°08' W 093°19'0 0.3
2016-Sep-25 16:33N 30°08' W 093°20'4 4.4
2016-Sep-25 15:33N 30°04' W 093°21'6 6.2
2016-Sep-25 14:33N 30°04' W 093°28'82 2.9
2016-Sep-24 10:25N 29°36' W 094°57'6 6.9
2016-Sep-24 09:33N 29°42' W 094°59'  
2016-Sep-21 09:33N 29°32' W 094°54'68 3.5
2016-Sep-20 14:14N 30°03' W 093°44'4 5.4
2016-Sep-20 13:33N 30°04' W 093°40'14 4.8
2016-Sep-20 10:33N 30°04' W 093°23'5 2.7
2016-Sep-20 08:33N 30°08' W 093°20'0 0.4
2016-Sep-20 07:33N 30°08' W 093°19'0 0.0
2016-Sep-20 06:33N 30°08' W 093°19'0 0.0
2016-Sep-20 02:33N 30°08' W 093°19'0 0.0
2016-Sep-19 23:33N 30°08' W 093°19'0 0.0
2016-Sep-19 19:33N 30°08' W 093°19'0 0.0
2016-Sep-19 18:33N 30°08' W 093°19'0 0.0
2016-Sep-19 16:33N 30°08' W 093°19'6 3.1
2016-Sep-19 14:33N 30°04' W 093°24'4 3.9
2016-Sep-19 13:33N 30°04' W 093°28'2 2.2
2016-Sep-19 12:33N 30°04' W 093°31'  
2016-Sep-17 08:24N 29°44' W 095°03'1 1.6
2016-Sep-17 07:33N 29°44' W 095°02'11 5.4
2016-Sep-17 05:33N 29°34' W 094°55'  
Track history (hours):
 
Tides and Currents Weather Stations Pressure Air Temp Water Temp Dewpoint Dewpoint Depression Visibility Wind Speed Wind Dir Waves Ship Positions

Jack Guidry

Owner: Enterprise Marine Services, LLC, San Antonio, TX. More information available from US FCC via Universal Licensing System and Coast Guard Vessel Documentation Center.

Last reported at 2016-Sep-26 13:14 UTC. Time now 2016-Sep-26 22:29 UTC.
Position N 30°04' W 093°33'.

Length 22 m; draft 3 m.

Type: Other ship. MMSI: 367003430.

Date/timePositionNaut miles runAvg speedWind from/ knotsBaromVisibWave heightAir tempDewpointWater temp
2016-Sep-26 13:14N 30°04' W 093°33'8 4.6
2016-Sep-26 11:33N 30°04' W 093°24'6 2.0
2016-Sep-26 08:33N 30°08' W 093°19'0 0.0
2016-Sep-26 02:33N 30°08' W 093°19'0 0.0
2016-Sep-26 01:33N 30°08' W 093°19'0 0.0
2016-Sep-26 00:33N 30°08' W 093°19'0 0.0
2016-Sep-25 21:33N 30°08' W 093°19'0 0.0
2016-Sep-25 17:33N 30°08' W 093°19'0 0.3
2016-Sep-25 16:33N 30°08' W 093°20'4 4.4
2016-Sep-25 15:33N 30°04' W 093°21'6 6.2
2016-Sep-25 14:33N 30°04' W 093°28'82 2.9
2016-Sep-24 10:25N 29°36' W 094°57'6 6.9
2016-Sep-24 09:33N 29°42' W 094°59'  
2016-Sep-21 09:33N 29°32' W 094°54'68 3.5
2016-Sep-20 14:14N 30°03' W 093°44'4 5.4
2016-Sep-20 13:33N 30°04' W 093°40'14 4.8
2016-Sep-20 10:33N 30°04' W 093°23'5 2.7
2016-Sep-20 08:33N 30°08' W 093°20'0 0.4
2016-Sep-20 07:33N 30°08' W 093°19'0 0.0
2016-Sep-20 06:33N 30°08' W 093°19'0 0.0
2016-Sep-20 02:33N 30°08' W 093°19'0 0.0
2016-Sep-19 23:33N 30°08' W 093°19'0 0.0
2016-Sep-19 19:33N 30°08' W 093°19'0 0.0
2016-Sep-19 18:33N 30°08' W 093°19'0 0.0
2016-Sep-19 16:33N 30°08' W 093°19'6 3.1
2016-Sep-19 14:33N 30°04' W 093°24'4 3.9
2016-Sep-19 13:33N 30°04' W 093°28'2 2.2
2016-Sep-19 12:33N 30°04' W 093°31'  
2016-Sep-17 08:24N 29°44' W 095°03'1 1.6
2016-Sep-17 07:33N 29°44' W 095°02'11 5.4
2016-Sep-17 05:33N 29°34' W 094°55'  

Dump ship's entire track history